Time,TemperatureF,DewpointF,PressureIn,WindDirection,WindDirectionDegrees,WindSpeedMPH,WindSpeedGustMPH,Humidity,HourlyPrecipIn,Conditions,Clouds,dailyrainin,SoftwareType,DateUTC
2015-04-19 00:06:00,48.0,44.3,26.37,NNW,330,0.0,17.3,87,0.14,RA,RA,2.21,WeatherDisplay:10.36,2015-04-19 06:06:00,
2015-04-19 00:11:00,47.8,44.2,26.37,NW,304,0.0,8.1,87,0.14,RA,RA,2.21,WeatherDisplay:10.36,2015-04-19 06:11:00,
2015-04-19 00:17:00,47.8,44.2,26.40,NW,316,0.0,4.6,87,0.14,RA,RA,2.21,WeatherDisplay:10.36,2015-04-19 06:17:00,
2015-04-19 00:23:00,47.8,44.2,26.40,NW,324,3.9,8.4,87,0.14,CLR,CLR,2.21,WeatherDisplay:10.36,2015-04-19 06:23:00,
2015-04-19 00:29:00,47.8,44.2,26.40,NW,325,3.3,7.2,87,0.14,CLR,CLR,2.21,WeatherDisplay:10.36,2015-04-19 06:29:00,
2015-04-19 00:34:00,47.8,44.2,26.40,NW,309,3.9,8.1,87,0.14,CLR,CLR,2.21,WeatherDisplay:10.36,2015-04-19 06:34:00,
2015-04-19 00:39:00,48.0,44.3,26.40,WNW,299,5.0,11.7,87,0.14,CLR,CLR,2.21,WeatherDisplay:10.36,2015-04-19 06:39:00,
2015-04-19 00:44:00,48.2,44.5,26.40,NW,319,5.5,10.4,87,0.14,CLR,CLR,2.21,WeatherDisplay:10.36,2015-04-19 06:44:00,
2015-04-19 00:49:00,48.4,45.0,26.40,NW,322,10.0,16.1,88,0.14,CLR,CLR,2.21,WeatherDisplay:10.36,2015-04-19 06:49:00,
2015-04-19 00:54:00,48.4,45.0,26.40,WNW,294,10.3,15.0,88,0.14,CLR,CLR,2.21,WeatherDisplay:10.36,2015-04-19 06:54:00,
2015-04-19 00:59:00,48.4,44.7,26.40,NNW,334,10.3,16.1,87,0.05,CLR,CLR,2.21,WeatherDisplay:10.36,2015-04-19 06:59:00,
2015-04-19 01:04:00,48.4,44.4,26.40,NNW,345,10.0,15.0,86,0.00,CLR,CLR,2.21,WeatherDisplay:10.36,2015-04-19 07:04:00,
2015-04-19 01:09:00,48.2,43.9,26.40,NW,310,7.8,15.0,85,0.00,CLR,CLR,2.21,WeatherDisplay:10.36,2015-04-19 07:09:00,
2015-04-19 01:19:00,47.7,43.7,26.40,NNW,330,7.2,10.8,86,0.00,CLR,CLR,2.21,WeatherDisplay:10.36,2015-04-19 07:19:00,
2015-04-19 01:29:00,47.5,43.8,26.40,WNW,287,11.4,17.7,87,0.00,CLR,CLR,2.21,WeatherDisplay:10.36,2015-04-19 07:29:00,
2015-04-19 01:34:00,47.3,43.6,26.40,North,353,13.6,23.0,87,0.00,CLR,CLR,2.21,WeatherDisplay:10.36,2015-04-19 07:34:00,
2015-04-19 01:39:00,46.9,43.0,26.40,NW,304,10.3,15.0,86,0.00,CLR,CLR,2.21,WeatherDisplay:10.36,2015-04-19 07:39:00,
2015-04-19 01:44:00,46.6,42.9,26.40,NE,40,11.9,22.8,87,0.00,CLR,CLR,2.21,WeatherDisplay:10.36,2015-04-19 07:44:00,
2015-04-19 01:49:00,46.4,43.0,26.40,NW,323,10.0,15.9,88,0.00,CLR,CLR,2.21,WeatherDisplay:10.36,2015-04-19 07:49:00,
2015-04-19 01:54:00,46.4,43.6,26.40,NW,318,10.8,13.8,90,0.00,CLR,CLR,2.21,WeatherDisplay:10.36,2015-04-19 07:54:00,
2015-04-19 01:59:00,46.4,43.9,26.40,NNW,327,11.9,17.7,91,0.00,CLR,CLR,2.21,WeatherDisplay:10.36,2015-04-19 07:59:00,
2015-04-19 02:04:00,46.6,43.8,26.40,North,357,11.4,17.3,90,0.00,CLR,CLR,2.21,WeatherDisplay:10.36,2015-04-19 08:04:00,
2015-04-19 02:09:00,46.6,43.5,26.40,North,357,11.4,17.7,89,0.00,CLR,CLR,2.21,WeatherDisplay:10.36,2015-04-19 08:09:00,
2015-04-19 02:14:00,46.6,43.2,26.40,North,353,9.4,13.5,88,0.00,CLR,CLR,2.21,WeatherDisplay:10.36,2015-04-19 08:14:00,
2015-04-19 02:19:00,46.6,43.2,26.40,WNW,294,10.3,16.5,88,0.00,CLR,CLR,2.21,WeatherDisplay:10.36,2015-04-19 08:19:00,
2015-04-19 02:29:00,46.2,42.9,26.40,NNE,19,10.3,15.9,88,0.00,CLR,CLR,2.21,WeatherDisplay:10.36,2015-04-19 08:29:00,
2015-04-19 02:34:00,46.0,43.0,26.43,NW,326,10.8,20.7,89,0.00,CLR,CLR,2.21,WeatherDisplay:10.36,2015-04-19 08:34:00,
2015-04-19 02:39:00,46.0,43.3,26.43,NNW,340,6.6,17.1,90,0.00,CLR,CLR,2.21,WeatherDisplay:10.36,2015-04-19 08:39:00,
2015-04-19 02:44:00,45.9,43.1,26.43,NW,310,11.9,13.8,90,0.00,CLR,CLR,2.21,WeatherDisplay:10.36,2015-04-19 08:44:00,
2015-04-19 02:49:00,45.9,43.1,26.43,West,277,7.2,11.7,90,0.00,CLR,CLR,2.21,WeatherDisplay:10.36,2015-04-19 08:49:00,
2015-04-19 02:54:00,45.9,43.1,26.43,NNE,16,10.0,16.1,90,0.00,CLR,CLR,2.21,WeatherDisplay:10.36,2015-04-19 08:54:00,
2015-04-19 02:59:00,45.7,42.9,26.43,North,1,11.9,16.5,90,0.00,CLR,CLR,2.21,WeatherDisplay:10.36,2015-04-19 08:59:00,
2015-04-19 03:04:00,45.3,42.6,26.43,NW,313,10.3,15.0,90,0.00,CLR,CLR,2.21,WeatherDisplay:10.36,2015-04-19 09:04:00,
2015-04-19 03:09:00,45.1,42.4,26.43,NNE,16,13.6,23.4,90,0.00,CLR,CLR,2.21,WeatherDisplay:10.36,2015-04-19 09:09:00,
2015-04-19 03:14:00,44.6,41.8,26.43,NNW,342,16.9,27.6,90,0.00,CLR,CLR,2.21,WeatherDisplay:10.36,2015-04-19 09:14:00,
2015-04-19 03:19:00,44.2,41.2,26.43,NNW,338,15.8,26.3,89,0.00,CLR,CLR,2.21,WeatherDisplay:10.36,2015-04-19 09:19:00,
2015-04-19 03:24:00,44.1,40.1,26.43,NNW,331,18.6,31.1,86,0.00,CLR,CLR,2.21,WeatherDisplay:10.36,2015-04-19 09:24:00,
2015-04-19 03:29:00,43.9,39.4,26.43,NNW,342,15.2,20.1,84,0.00,CLR,CLR,2.21,WeatherDisplay:10.36,2015-04-19 09:29:00,
2015-04-19 03:34:00,43.9,39.1,26.43,North,357,20.2,26.5,83,0.00,CLR,CLR,2.21,WeatherDisplay:10.36,2015-04-19 09:34:00,
2015-04-19 03:39:00,43.9,38.7,26.43,NW,310,11.9,20.7,82,0.00,CLR,CLR,2.21,WeatherDisplay:10.36,2015-04-19 09:39:00,
2015-04-19 03:44:00,44.1,38.9,26.43,NW,316,11.4,15.3,82,0.00,CLR,CLR,2.21,WeatherDisplay:10.36,2015-04-19 09:44:00,
2015-04-19 03:49:00,44.2,39.4,26.43,NW,308,10.8,18.4,83,0.00,CLR,CLR,2.21,WeatherDisplay:10.36,2015-04-19 09:49:00,
2015-04-19 03:54:00,44.4,39.6,26.43,North,4,8.9,15.0,83,0.00,CLR,CLR,2.21,WeatherDisplay:10.36,2015-04-19 09:54:00,
2015-04-19 03:59:00,44.6,39.4,26.43,North,1,11.4,17.7,82,0.00,CLR,CLR,2.21,WeatherDisplay:10.36,2015-04-19 09:59:00,
2015-04-19 04:04:00,44.6,39.4,26.43,NNW,333,10.8,17.3,82,0.00,CLR,CLR,2.21,WeatherDisplay:10.36,2015-04-19 10:04:00,
2015-04-19 04:10:00,44.6,39.4,26.43,North,357,8.9,18.9,82,0.00,CLR,CLR,2.21,WeatherDisplay:10.36,2015-04-19 10:10:00,
2015-04-19 04:16:00,44.6,39.1,26.43,North,1,11.9,17.7,81,0.00,CLR,CLR,2.21,WeatherDisplay:10.36,2015-04-19 10:16:00,
2015-04-19 04:22:00,44.6,38.8,26.43,NNE,18,11.9,17.1,80,0.00,CLR,CLR,2.21,WeatherDisplay:10.36,2015-04-19 10:22:00,
2015-04-19 04:27:00,44.6,38.5,26.43,NNW,341,14.1,20.7,79,0.00,CLR,CLR,2.21,WeatherDisplay:10.36,2015-04-19 10:27:00,
2015-04-19 04:32:00,44.4,38.3,26.46,NW,306,13.0,20.1,79,0.00,CLR,CLR,2.21,WeatherDisplay:10.36,2015-04-19 10:32:00,
2015-04-19 04:37:00,44.2,38.1,26.46,WNW,296,11.9,11.9,79,0.00,CLR,CLR,2.21,WeatherDisplay:10.36,2015-04-19 10:37:00,
2015-04-19 04:42:00,44.1,38.0,26.46,WNW,300,8.9,11.1,79,0.00,CLR,CLR,2.21,WeatherDisplay:10.36,2015-04-19 10:42:00,
2015-04-19 04:47:00,44.1,38.0,26.46,West,273,11.4,16.5,79,0.00,CLR,CLR,2.21,WeatherDisplay:10.36,2015-04-19 10:47:00,
2015-04-19 04:52:00,44.1,38.0,26.46,WNW,294,10.8,17.7,79,0.00,CLR,CLR,2.21,WeatherDisplay:10.36,2015-04-19 10:52:00,
2015-04-19 04:57:00,43.9,37.8,26.46,NW,319,10.8,16.5,79,0.00,CLR,CLR,2.21,WeatherDisplay:10.36,2015-04-19 10:57:00,
2015-04-19 05:02:00,43.9,37.5,26.46,NNW,338,10.8,17.3,78,0.00,CLR,CLR,2.21,WeatherDisplay:10.36,2015-04-19 11:02:00,
2015-04-19 05:07:00,43.7,36.6,26.46,WNW,292,14.7,23.0,76,0.00,CLR,CLR,2.21,WeatherDisplay:10.36,2015-04-19 11:07:00,
2015-04-19 05:12:00,43.7,36.0,26.46,WNW,292,11.4,13.8,74,0.00,CLR,CLR,2.21,WeatherDisplay:10.36,2015-04-19 11:12:00,
2015-04-19 05:17:00,43.5,35.1,26.49,NNW,341,14.1,19.6,72,0.00,CLR,CLR,2.21,WeatherDisplay:10.36,2015-04-19 11:17:00,
2015-04-19 05:22:00,43.5,34.7,26.49,NW,326,10.3,16.1,71,0.00,CLR,CLR,2.21,WeatherDisplay:10.36,2015-04-19 11:22:00,
2015-04-19 05:27:00,43.3,34.2,26.49,NW,310,11.4,16.1,70,0.00,CLR,CLR,2.21,WeatherDisplay:10.36,2015-04-19 11:27:00,
2015-04-19 05:32:00,43.2,33.7,26.49,NW,313,10.3,14.1,69,0.00,CLR,CLR,2.21,WeatherDisplay:10.36,2015-04-19 11:32:00,
2015-04-19 05:37:00,43.0,33.1,26.49,WNW,299,13.0,17.3,68,0.00,CLR,CLR,2.21,WeatherDisplay:10.36,2015-04-19 11:37:00,
2015-04-19 05:42:00,43.0,32.8,26.49,NNW,329,14.1,20.1,67,0.00,CLR,CLR,2.21,WeatherDisplay:10.36,2015-04-19 11:42:00,
2015-04-19 05:47:00,42.8,32.6,26.49,NNW,344,10.0,16.5,67,0.00,CLR,CLR,2.21,WeatherDisplay:10.36,2015-04-19 11:47:00,
2015-04-19 05:52:00,42.4,32.3,26.49,WNW,287,10.0,14.1,67,0.00,CLR,CLR,2.21,WeatherDisplay:10.36,2015-04-19 11:52:00,
2015-04-19 05:57:00,42.3,32.1,26.49,NNW,335,10.3,14.1,67,0.00,CLR,CLR,2.21,WeatherDisplay:10.36,2015-04-19 11:57:00,
2015-04-19 06:02:00,41.9,32.1,26.49,NW,323,11.4,17.7,68,0.00,CLR,CLR,2.21,WeatherDisplay:10.36,2015-04-19 12:02:00,
2015-04-19 06:07:00,41.7,31.9,26.49,NW,312,10.3,12.9,68,0.00,CLR,CLR,2.21,WeatherDisplay:10.36,2015-04-19 12:07:00,
2015-04-19 06:12:00,41.5,31.8,26.49,NNW,330,10.3,14.1,68,0.00,CLR,CLR,2.21,WeatherDisplay:10.36,2015-04-19 12:12:00,
2015-04-19 06:17:00,41.2,31.4,26.49,NW,318,10.8,17.7,68,0.00,CLR,CLR,2.21,WeatherDisplay:10.36,2015-04-19 12:17:00,
2015-04-19 06:22:00,41.2,31.8,26.49,NW,317,11.9,14.1,69,0.00,CLR,CLR,2.21,WeatherDisplay:10.36,2015-04-19 12:22:00,
2015-04-19 06:27:00,41.0,31.6,26.49,North,357,8.3,12.7,69,0.00,CLR,CLR,2.21,WeatherDisplay:10.36,2015-04-19 12:27:00,
2015-04-19 06:32:00,40.8,31.4,26.49,NW,311,8.3,8.4,69,0.00,CLR,CLR,2.21,WeatherDisplay:10.36,2015-04-19 12:32:00,
2015-04-19 06:37:00,40.6,31.6,26.49,WNW,288,7.2,11.5,70,0.00,CLR,CLR,2.21,WeatherDisplay:10.36,2015-04-19 12:37:00,
2015-04-19 06:42:00,40.6,31.6,26.49,West,277,7.8,8.4,70,0.00,CLR,CLR,2.21,WeatherDisplay:10.36,2015-04-19 12:42:00,
2015-04-19 06:47:00,40.8,32.1,26.52,NW,313,7.8,11.7,71,0.00,CLR,CLR,2.21,WeatherDisplay:10.36,2015-04-19 12:47:00,
2015-04-19 06:52:00,40.8,32.5,26.52,NNW,331,7.8,15.0,72,0.00,CLR,CLR,2.21,WeatherDisplay:10.36,2015-04-19 12:52:00,
2015-04-19 06:57:00,41.0,32.7,26.52,West,280,10.3,17.7,72,0.00,CLR,CLR,2.21,WeatherDisplay:10.36,2015-04-19 12:57:00,
2015-04-19 07:02:00,41.2,33.2,26.52,NW,310,10.8,14.7,73,0.00,CLR,CLR,0.00,WeatherDisplay:10.36,2015-04-19 13:02:00,
2015-04-19 07:07:00,41.4,33.4,26.52,WNW,286,11.4,19.5,73,0.00,CLR,CLR,0.00,WeatherDisplay:10.36,2015-04-19 13:07:00,
2015-04-19 07:12:00,41.7,33.4,26.52,NW,305,11.4,13.8,72,0.00,CLR,CLR,0.00,WeatherDisplay:10.36,2015-04-19 13:12:00,
2015-04-19 07:17:00,42.3,33.5,26.52,NNW,328,10.8,16.1,71,0.00,CLR,CLR,0.00,WeatherDisplay:10.36,2015-04-19 13:17:00,